< Cyclone 200103 2001 Season Cyclone 200105 >
Cyclone 200104 (VINCENT)
General InformationTrack Information on Google MapsDetailed Wind InformationList of All Images || ResourceGoogle EarthGE AnimationAtom FeedGeoJSON
Detalied Best Track (Time Zone = UTC)
Year Month Day Hour Lat. Long. Pressure (hPa) Wind (kt) Class Image Chart
2001 2 12 01 -14.8 110.9 990 41 3 Image --
2001 2 12 04 -14.6 110.8 988 45 3 Image --
2001 2 12 07 -14.4 111.0 984 49 4 Image --
2001 2 12 10 -14.3 111.4 980 54 4 Image --
2001 2 12 13 -14.3 111.9 980 54 4 Image --
2001 2 12 16 -14.3 112.4 980 54 4 Image --
2001 2 12 19 -14.4 113.0 980 54 4 Image --
2001 2 12 22 -14.4 113.7 984 49 4 Image --
2001 2 13 01 -14.5 114.4 984 49 4 Image --
2001 2 13 04 -14.8 115.0 986 47 3 Image --
2001 2 13 07 -15.1 115.3 986 47 3 Image --
2001 2 13 10 -15.3 115.6 988 45 3 Image --
2001 2 13 13 -15.4 116.1 988 45 3 Image --
2001 2 13 16 -15.4 116.7 990 41 3 Image --
2001 2 13 19 -15.5 117.3 990 41 3 Image --
2001 2 13 22 -15.7 117.8 990 41 3 Image --
2001 2 14 01 -15.9 118.3 990 41 3 Image --
2001 2 14 04 -16.1 118.5 990 41 3 Image --
2001 2 14 07 -16.4 118.8 990 41 3 Image --
2001 2 14 10 -16.6 119.1 990 41 3 Image --
2001 2 14 16 -16.7 119.7 990 41 3 Image --
2001 2 14 22 -16.8 120.1 990 41 3 Image --
2001 2 15 04 -17.0 120.7 990 41 3 Image --
2001 2 15 10 -17.7 121.7 990 41 3 Image --
< Cyclone 200103 2001 Season Cyclone 200105 >

Help